sensor_id;sensor_type;location;lat;lon;timestamp;temperature;humidity
45137;DHT22;30894;51.740;19.498;2022-12-07T00:01:37;2.80;99.90
45137;DHT22;30894;51.740;19.498;2022-12-07T00:04:05;2.80;99.90
45137;DHT22;30894;51.740;19.498;2022-12-07T00:06:39;2.80;99.90
45137;DHT22;30894;51.740;19.498;2022-12-07T00:09:09;2.80;99.90
45137;DHT22;30894;51.740;19.498;2022-12-07T00:11:37;2.80;99.90
45137;DHT22;30894;51.740;19.498;2022-12-07T00:14:06;2.80;99.90
45137;DHT22;30894;51.740;19.498;2022-12-07T00:16:34;2.80;99.90
45137;DHT22;30894;51.740;19.498;2022-12-07T00:19:01;2.70;99.90
45137;DHT22;30894;51.740;19.498;2022-12-07T00:21:30;2.80;99.90
45137;DHT22;30894;51.740;19.498;2022-12-07T00:23:58;2.80;99.90
45137;DHT22;30894;51.740;19.498;2022-12-07T00:26:30;2.80;99.90
45137;DHT22;30894;51.740;19.498;2022-12-07T00:29:09;2.80;99.90
45137;DHT22;30894;51.740;19.498;2022-12-07T00:31:39;2.80;99.90
45137;DHT22;30894;51.740;19.498;2022-12-07T00:34:06;2.80;99.90
45137;DHT22;30894;51.740;19.498;2022-12-07T00:36:33;2.80;99.90
45137;DHT22;30894;51.740;19.498;2022-12-07T00:38:59;2.80;99.90
45137;DHT22;30894;51.740;19.498;2022-12-07T00:41:29;2.80;99.90
45137;DHT22;30894;51.740;19.498;2022-12-07T00:43:56;2.80;99.90
45137;DHT22;30894;51.740;19.498;2022-12-07T00:46:24;2.80;99.90
45137;DHT22;30894;51.740;19.498;2022-12-07T00:48:51;2.80;99.90
45137;DHT22;30894;51.740;19.498;2022-12-07T00:51:21;2.80;99.90
45137;DHT22;30894;51.740;19.498;2022-12-07T00:53:48;2.70;99.90
45137;DHT22;30894;51.740;19.498;2022-12-07T00:58:42;2.70;99.90
45137;DHT22;30894;51.740;19.498;2022-12-07T01:01:10;2.70;99.90
45137;DHT22;30894;51.740;19.498;2022-12-07T01:03:39;2.70;99.90
45137;DHT22;30894;51.740;19.498;2022-12-07T01:06:05;2.70;99.90
45137;DHT22;30894;51.740;19.498;2022-12-07T01:08:32;2.70;99.90
45137;DHT22;30894;51.740;19.498;2022-12-07T01:11:02;2.70;99.90
45137;DHT22;30894;51.740;19.498;2022-12-07T01:13:31;2.70;99.90
45137;DHT22;30894;51.740;19.498;2022-12-07T01:16:01;2.70;99.90
45137;DHT22;30894;51.740;19.498;2022-12-07T01:18:34;2.60;99.90
45137;DHT22;30894;51.740;19.498;2022-12-07T01:21:06;2.60;99.90
45137;DHT22;30894;51.740;19.498;2022-12-07T01:23:34;2.60;99.90
45137;DHT22;30894;51.740;19.498;2022-12-07T01:26:04;2.60;99.90
45137;DHT22;30894;51.740;19.498;2022-12-07T01:28:33;2.60;99.90
45137;DHT22;30894;51.740;19.498;2022-12-07T01:31:02;2.60;99.90
45137;DHT22;30894;51.740;19.498;2022-12-07T01:33:33;2.60;99.90
45137;DHT22;30894;51.740;19.498;2022-12-07T01:38:43;2.60;99.90
45137;DHT22;30894;51.740;19.498;2022-12-07T01:41:12;2.60;99.90
45137;DHT22;30894;51.740;19.498;2022-12-07T01:46:33;2.60;99.90
45137;DHT22;30894;51.740;19.498;2022-12-07T01:49:00;2.60;99.90
45137;DHT22;30894;51.740;19.498;2022-12-07T01:51:28;2.60;99.90
45137;DHT22;30894;51.740;19.498;2022-12-07T01:53:55;2.60;99.90
45137;DHT22;30894;51.740;19.498;2022-12-07T01:56:25;2.60;99.90
45137;DHT22;30894;51.740;19.498;2022-12-07T01:58:54;2.60;99.90
45137;DHT22;30894;51.740;19.498;2022-12-07T02:01:22;2.60;99.90
45137;DHT22;30894;51.740;19.498;2022-12-07T02:03:48;2.60;99.90
45137;DHT22;30894;51.740;19.498;2022-12-07T02:06:19;2.50;99.90
45137;DHT22;30894;51.740;19.498;2022-12-07T02:08:47;2.60;99.90
45137;DHT22;30894;51.740;19.498;2022-12-07T02:11:13;2.50;99.90
45137;DHT22;30894;51.740;19.498;2022-12-07T02:13:41;2.50;99.90
45137;DHT22;30894;51.740;19.498;2022-12-07T02:16:25;2.50;99.90
45137;DHT22;30894;51.740;19.498;2022-12-07T02:22:27;2.50;99.90
45137;DHT22;30894;51.740;19.498;2022-12-07T02:28:13;2.50;99.90
45137;DHT22;30894;51.740;19.498;2022-12-07T02:30:45;2.50;99.90
45137;DHT22;30894;51.740;19.498;2022-12-07T02:33:18;2.50;99.90
45137;DHT22;30894;51.740;19.498;2022-12-07T02:35:54;2.50;99.90
45137;DHT22;30894;51.740;19.498;2022-12-07T02:41:04;2.50;99.90
45137;DHT22;30894;51.740;19.498;2022-12-07T02:43:43;2.50;99.90
45137;DHT22;30894;51.740;19.498;2022-12-07T02:46:15;2.50;99.90
45137;DHT22;30894;51.740;19.498;2022-12-07T02:48:45;2.50;99.90
45137;DHT22;30894;51.740;19.498;2022-12-07T02:51:14;2.50;99.90
45137;DHT22;30894;51.740;19.498;2022-12-07T02:53:42;2.50;99.90
45137;DHT22;30894;51.740;19.498;2022-12-07T03:05:01;2.50;99.90
45137;DHT22;30894;51.740;19.498;2022-12-07T03:10:50;2.50;99.90
45137;DHT22;30894;51.740;19.498;2022-12-07T03:16:35;2.50;99.90
45137;DHT22;30894;51.740;19.498;2022-12-07T03:19:10;2.60;99.90
45137;DHT22;30894;51.740;19.498;2022-12-07T03:21:52;2.50;99.90
45137;DHT22;30894;51.740;19.498;2022-12-07T03:24:29;2.50;99.90
45137;DHT22;30894;51.740;19.498;2022-12-07T03:27:20;2.50;99.90
45137;DHT22;30894;51.740;19.498;2022-12-07T03:29:54;2.50;99.90
45137;DHT22;30894;51.740;19.498;2022-12-07T03:32:35;2.50;99.90
45137;DHT22;30894;51.740;19.498;2022-12-07T03:35:18;2.50;99.90
45137;DHT22;30894;51.740;19.498;2022-12-07T03:38:03;2.50;99.90
45137;DHT22;30894;51.740;19.498;2022-12-07T03:40:50;2.50;99.90
45137;DHT22;30894;51.740;19.498;2022-12-07T03:43:22;2.50;99.90
45137;DHT22;30894;51.740;19.498;2022-12-07T03:49:56;2.50;99.90
45137;DHT22;30894;51.740;19.498;2022-12-07T03:52:26;2.50;99.90
45137;DHT22;30894;51.740;19.498;2022-12-07T03:57:55;2.50;99.90
45137;DHT22;30894;51.740;19.498;2022-12-07T04:00:24;2.50;99.90
45137;DHT22;30894;51.740;19.498;2022-12-07T04:02:53;2.50;99.90
45137;DHT22;30894;51.740;19.498;2022-12-07T04:05:20;2.50;99.90
45137;DHT22;30894;51.740;19.498;2022-12-07T04:07:46;2.50;99.90
45137;DHT22;30894;51.740;19.498;2022-12-07T04:10:13;2.50;99.90
45137;DHT22;30894;51.740;19.498;2022-12-07T04:12:39;2.40;99.90
45137;DHT22;30894;51.740;19.498;2022-12-07T04:15:06;2.50;99.90
45137;DHT22;30894;51.740;19.498;2022-12-07T04:17:33;2.50;99.90
45137;DHT22;30894;51.740;19.498;2022-12-07T04:20:00;2.50;99.90
45137;DHT22;30894;51.740;19.498;2022-12-07T04:22:26;2.40;99.90
45137;DHT22;30894;51.740;19.498;2022-12-07T04:24:55;2.40;99.90
45137;DHT22;30894;51.740;19.498;2022-12-07T04:27:21;2.50;99.90
45137;DHT22;30894;51.740;19.498;2022-12-07T04:29:48;2.40;99.90
45137;DHT22;30894;51.740;19.498;2022-12-07T04:32:14;2.40;99.90
45137;DHT22;30894;51.740;19.498;2022-12-07T04:34:40;2.40;99.90
45137;DHT22;30894;51.740;19.498;2022-12-07T04:37:08;2.50;99.90
45137;DHT22;30894;51.740;19.498;2022-12-07T04:39:34;2.50;99.90
45137;DHT22;30894;51.740;19.498;2022-12-07T04:42:01;2.40;99.90
45137;DHT22;30894;51.740;19.498;2022-12-07T04:44:29;2.40;99.90
45137;DHT22;30894;51.740;19.498;2022-12-07T04:46:56;2.40;99.90
45137;DHT22;30894;51.740;19.498;2022-12-07T04:49:24;2.40;99.90
45137;DHT22;30894;51.740;19.498;2022-12-07T04:51:51;2.40;99.90
45137;DHT22;30894;51.740;19.498;2022-12-07T04:54:19;2.40;99.90
45137;DHT22;30894;51.740;19.498;2022-12-07T04:56:46;2.40;99.90
45137;DHT22;30894;51.740;19.498;2022-12-07T04:59:13;2.40;99.90
45137;DHT22;30894;51.740;19.498;2022-12-07T05:01:46;2.40;99.90
45137;DHT22;30894;51.740;19.498;2022-12-07T05:04:13;2.40;99.90
45137;DHT22;30894;51.740;19.498;2022-12-07T05:06:41;2.40;99.90
45137;DHT22;30894;51.740;19.498;2022-12-07T05:09:08;2.40;99.90
45137;DHT22;30894;51.740;19.498;2022-12-07T05:11:35;2.40;99.90
45137;DHT22;30894;51.740;19.498;2022-12-07T05:16:42;2.40;99.90
45137;DHT22;30894;51.740;19.498;2022-12-07T05:19:09;2.40;99.90
45137;DHT22;30894;51.740;19.498;2022-12-07T05:21:39;2.40;99.90
45137;DHT22;30894;51.740;19.498;2022-12-07T05:24:07;2.30;99.90
45137;DHT22;30894;51.740;19.498;2022-12-07T05:26:35;2.40;99.90
45137;DHT22;30894;51.740;19.498;2022-12-07T05:29:02;2.40;99.90
45137;DHT22;30894;51.740;19.498;2022-12-07T05:31:28;2.40;99.90
45137;DHT22;30894;51.740;19.498;2022-12-07T05:33:55;2.40;99.90
45137;DHT22;30894;51.740;19.498;2022-12-07T05:36:21;2.40;99.90
45137;DHT22;30894;51.740;19.498;2022-12-07T05:38:49;2.40;99.90
45137;DHT22;30894;51.740;19.498;2022-12-07T05:41:17;2.40;99.90
45137;DHT22;30894;51.740;19.498;2022-12-07T05:44:03;2.40;99.90
45137;DHT22;30894;51.740;19.498;2022-12-07T05:46:31;2.40;99.90
45137;DHT22;30894;51.740;19.498;2022-12-07T05:49:14;2.40;99.90
45137;DHT22;30894;51.740;19.498;2022-12-07T05:51:47;2.40;99.90
45137;DHT22;30894;51.740;19.498;2022-12-07T05:54:14;2.40;99.90
45137;DHT22;30894;51.740;19.498;2022-12-07T05:56:42;2.40;99.90
45137;DHT22;30894;51.740;19.498;2022-12-07T05:59:11;2.40;99.90
45137;DHT22;30894;51.740;19.498;2022-12-07T06:01:55;2.50;99.90
45137;DHT22;30894;51.740;19.498;2022-12-07T06:04:24;2.40;99.90
45137;DHT22;30894;51.740;19.498;2022-12-07T06:06:52;2.40;99.90
45137;DHT22;30894;51.740;19.498;2022-12-07T06:09:20;2.40;99.90
45137;DHT22;30894;51.740;19.498;2022-12-07T06:11:50;2.40;99.90
45137;DHT22;30894;51.740;19.498;2022-12-07T06:14:38;2.30;99.90
45137;DHT22;30894;51.740;19.498;2022-12-07T06:17:06;2.30;99.90
45137;DHT22;30894;51.740;19.498;2022-12-07T06:19:33;2.30;99.90
45137;DHT22;30894;51.740;19.498;2022-12-07T06:21:59;2.30;99.90
45137;DHT22;30894;51.740;19.498;2022-12-07T06:24:26;2.30;99.90
45137;DHT22;30894;51.740;19.498;2022-12-07T06:26:52;2.30;99.90
45137;DHT22;30894;51.740;19.498;2022-12-07T06:29:18;2.30;99.90
45137;DHT22;30894;51.740;19.498;2022-12-07T06:31:45;2.30;99.90
45137;DHT22;30894;51.740;19.498;2022-12-07T06:34:15;2.30;99.90
45137;DHT22;30894;51.740;19.498;2022-12-07T06:36:42;2.30;99.90
45137;DHT22;30894;51.740;19.498;2022-12-07T06:39:10;2.30;99.90
45137;DHT22;30894;51.740;19.498;2022-12-07T06:41:38;2.30;99.90
45137;DHT22;30894;51.740;19.498;2022-12-07T06:44:05;2.30;99.90
45137;DHT22;30894;51.740;19.498;2022-12-07T06:46:32;2.30;99.90
45137;DHT22;30894;51.740;19.498;2022-12-07T06:48:59;2.30;99.90
45137;DHT22;30894;51.740;19.498;2022-12-07T06:51:25;2.30;99.90
45137;DHT22;30894;51.740;19.498;2022-12-07T06:53:52;2.30;99.90
45137;DHT22;30894;51.740;19.498;2022-12-07T06:56:20;2.30;99.90
45137;DHT22;30894;51.740;19.498;2022-12-07T06:58:51;2.30;99.90
45137;DHT22;30894;51.740;19.498;2022-12-07T07:01:18;2.40;99.90
45137;DHT22;30894;51.740;19.498;2022-12-07T07:03:45;2.40;99.90
45137;DHT22;30894;51.740;19.498;2022-12-07T07:06:13;2.40;99.90
45137;DHT22;30894;51.740;19.498;2022-12-07T07:08:40;2.40;99.90
45137;DHT22;30894;51.740;19.498;2022-12-07T07:11:08;2.50;99.90
45137;DHT22;30894;51.740;19.498;2022-12-07T07:13:34;2.50;99.90
45137;DHT22;30894;51.740;19.498;2022-12-07T07:16:01;2.50;99.90
45137;DHT22;30894;51.740;19.498;2022-12-07T07:18:29;2.50;99.90
45137;DHT22;30894;51.740;19.498;2022-12-07T07:20:58;2.60;99.90
45137;DHT22;30894;51.740;19.498;2022-12-07T07:23:25;2.60;99.90
45137;DHT22;30894;51.740;19.498;2022-12-07T07:25:51;2.60;99.90
45137;DHT22;30894;51.740;19.498;2022-12-07T07:28:17;2.60;99.90
45137;DHT22;30894;51.740;19.498;2022-12-07T07:30:43;2.60;99.90
45137;DHT22;30894;51.740;19.498;2022-12-07T07:33:10;2.60;99.90
45137;DHT22;30894;51.740;19.498;2022-12-07T07:35:37;2.60;99.90
45137;DHT22;30894;51.740;19.498;2022-12-07T07:38:03;2.60;99.90
45137;DHT22;30894;51.740;19.498;2022-12-07T07:40:30;2.60;99.90
45137;DHT22;30894;51.740;19.498;2022-12-07T07:42:57;2.60;99.90
45137;DHT22;30894;51.740;19.498;2022-12-07T07:45:25;2.70;99.90
45137;DHT22;30894;51.740;19.498;2022-12-07T07:47:52;2.60;99.90
45137;DHT22;30894;51.740;19.498;2022-12-07T07:50:19;2.70;99.90
45137;DHT22;30894;51.740;19.498;2022-12-07T07:52:50;2.70;99.90
45137;DHT22;30894;51.740;19.498;2022-12-07T07:55:19;2.70;99.90
45137;DHT22;30894;51.740;19.498;2022-12-07T07:57:46;2.60;99.90
45137;DHT22;30894;51.740;19.498;2022-12-07T08:00:15;2.70;99.90
45137;DHT22;30894;51.740;19.498;2022-12-07T08:02:43;2.70;99.90
45137;DHT22;30894;51.740;19.498;2022-12-07T08:05:12;2.70;99.90
45137;DHT22;30894;51.740;19.498;2022-12-07T08:07:41;2.60;99.90
45137;DHT22;30894;51.740;19.498;2022-12-07T08:10:11;2.70;99.90
45137;DHT22;30894;51.740;19.498;2022-12-07T08:12:41;2.60;99.90
45137;DHT22;30894;51.740;19.498;2022-12-07T08:15:29;2.60;99.90
45137;DHT22;30894;51.740;19.498;2022-12-07T08:17:57;2.60;99.90
45137;DHT22;30894;51.740;19.498;2022-12-07T08:20:23;2.60;99.90
45137;DHT22;30894;51.740;19.498;2022-12-07T08:22:50;2.60;99.90
45137;DHT22;30894;51.740;19.498;2022-12-07T08:25:18;2.60;99.90
45137;DHT22;30894;51.740;19.498;2022-12-07T08:27:44;2.60;99.90
45137;DHT22;30894;51.740;19.498;2022-12-07T08:30:10;2.60;99.90
45137;DHT22;30894;51.740;19.498;2022-12-07T08:32:39;2.60;99.90
45137;DHT22;30894;51.740;19.498;2022-12-07T08:35:08;2.60;99.90
45137;DHT22;30894;51.740;19.498;2022-12-07T08:37:38;2.70;99.90
45137;DHT22;30894;51.740;19.498;2022-12-07T08:40:08;2.70;99.90
45137;DHT22;30894;51.740;19.498;2022-12-07T08:42:36;2.80;99.90
45137;DHT22;30894;51.740;19.498;2022-12-07T08:45:13;2.80;99.90
45137;DHT22;30894;51.740;19.498;2022-12-07T08:47:57;2.80;99.90
45137;DHT22;30894;51.740;19.498;2022-12-07T08:50:26;2.90;99.90
45137;DHT22;30894;51.740;19.498;2022-12-07T08:52:55;2.90;99.90
45137;DHT22;30894;51.740;19.498;2022-12-07T08:55:23;2.90;99.90
45137;DHT22;30894;51.740;19.498;2022-12-07T08:57:50;2.90;99.90
45137;DHT22;30894;51.740;19.498;2022-12-07T09:00:19;2.90;99.90
45137;DHT22;30894;51.740;19.498;2022-12-07T09:02:47;2.90;99.90
45137;DHT22;30894;51.740;19.498;2022-12-07T09:05:13;2.90;99.90
45137;DHT22;30894;51.740;19.498;2022-12-07T09:07:43;2.90;99.90
45137;DHT22;30894;51.740;19.498;2022-12-07T09:10:11;2.90;99.90
45137;DHT22;30894;51.740;19.498;2022-12-07T09:12:37;2.80;99.90
45137;DHT22;30894;51.740;19.498;2022-12-07T09:15:04;2.80;99.90
45137;DHT22;30894;51.740;19.498;2022-12-07T09:17:33;2.80;99.90
45137;DHT22;30894;51.740;19.498;2022-12-07T09:19:59;2.80;99.90
45137;DHT22;30894;51.740;19.498;2022-12-07T09:22:30;2.80;99.90
45137;DHT22;30894;51.740;19.498;2022-12-07T09:24:58;2.80;99.90
45137;DHT22;30894;51.740;19.498;2022-12-07T09:27:25;2.80;99.90
45137;DHT22;30894;51.740;19.498;2022-12-07T09:29:53;2.80;99.90
45137;DHT22;30894;51.740;19.498;2022-12-07T09:32:19;2.80;99.90
45137;DHT22;30894;51.740;19.498;2022-12-07T09:34:46;2.80;99.90
45137;DHT22;30894;51.740;19.498;2022-12-07T09:37:13;2.80;99.90
45137;DHT22;30894;51.740;19.498;2022-12-07T09:39:40;2.80;99.90
45137;DHT22;30894;51.740;19.498;2022-12-07T09:42:08;2.70;99.90
45137;DHT22;30894;51.740;19.498;2022-12-07T09:44:36;2.70;99.90
45137;DHT22;30894;51.740;19.498;2022-12-07T09:47:09;2.80;99.90
45137;DHT22;30894;51.740;19.498;2022-12-07T09:49:35;2.80;99.90
45137;DHT22;30894;51.740;19.498;2022-12-07T09:54:36;2.90;99.90
45137;DHT22;30894;51.740;19.498;2022-12-07T09:57:03;2.80;99.90
45137;DHT22;30894;51.740;19.498;2022-12-07T09:59:29;2.80;99.90
45137;DHT22;30894;51.740;19.498;2022-12-07T10:01:55;2.80;99.90
45137;DHT22;30894;51.740;19.498;2022-12-07T10:04:49;2.80;99.90
45137;DHT22;30894;51.740;19.498;2022-12-07T10:07:15;2.80;99.90
45137;DHT22;30894;51.740;19.498;2022-12-07T10:09:41;2.80;99.90
45137;DHT22;30894;51.740;19.498;2022-12-07T10:12:11;2.80;99.90
45137;DHT22;30894;51.740;19.498;2022-12-07T10:14:59;2.80;99.90
45137;DHT22;30894;51.740;19.498;2022-12-07T10:17:35;2.80;99.90
45137;DHT22;30894;51.740;19.498;2022-12-07T10:20:19;2.80;99.90
45137;DHT22;30894;51.740;19.498;2022-12-07T10:23:05;2.80;99.90
45137;DHT22;30894;51.740;19.498;2022-12-07T10:25:38;2.80;99.90
45137;DHT22;30894;51.740;19.498;2022-12-07T10:28:17;2.80;99.90
45137;DHT22;30894;51.740;19.498;2022-12-07T10:30:53;2.90;99.90
45137;DHT22;30894;51.740;19.498;2022-12-07T10:33:36;2.90;99.90
45137;DHT22;30894;51.740;19.498;2022-12-07T10:36:21;3.00;99.90
45137;DHT22;30894;51.740;19.498;2022-12-07T10:39:12;3.00;99.90
45137;DHT22;30894;51.740;19.498;2022-12-07T10:41:58;3.00;99.90
45137;DHT22;30894;51.740;19.498;2022-12-07T10:44:28;3.00;99.90
45137;DHT22;30894;51.740;19.498;2022-12-07T10:56:10;3.00;99.90
45137;DHT22;30894;51.740;19.498;2022-12-07T10:59:21;3.00;99.90
45137;DHT22;30894;51.740;19.498;2022-12-07T11:12:09;3.40;99.90
45137;DHT22;30894;51.740;19.498;2022-12-07T11:15:01;3.30;99.90
45137;DHT22;30894;51.740;19.498;2022-12-07T11:20:44;3.20;99.90
45137;DHT22;30894;51.740;19.498;2022-12-07T11:23:44;3.10;99.90
45137;DHT22;30894;51.740;19.498;2022-12-07T11:26:40;3.20;99.90
45137;DHT22;30894;51.740;19.498;2022-12-07T11:35:49;3.10;99.90
45137;DHT22;30894;51.740;19.498;2022-12-07T11:38:52;3.10;99.90
45137;DHT22;30894;51.740;19.498;2022-12-07T11:41:25;3.10;99.90
45137;DHT22;30894;51.740;19.498;2022-12-07T11:46:52;3.20;99.90
45137;DHT22;30894;51.740;19.498;2022-12-07T11:52:25;3.30;99.90
45137;DHT22;30894;51.740;19.498;2022-12-07T11:54:54;3.30;99.90
45137;DHT22;30894;51.740;19.498;2022-12-07T11:57:33;3.30;99.90
45137;DHT22;30894;51.740;19.498;2022-12-07T12:00:16;3.30;99.90
45137;DHT22;30894;51.740;19.498;2022-12-07T12:03:02;3.40;99.90
45137;DHT22;30894;51.740;19.498;2022-12-07T12:05:42;3.40;99.90
45137;DHT22;30894;51.740;19.498;2022-12-07T12:08:30;3.40;99.90
45137;DHT22;30894;51.740;19.498;2022-12-07T12:11:03;3.50;99.90
45137;DHT22;30894;51.740;19.498;2022-12-07T12:17:20;3.50;99.90
45137;DHT22;30894;51.740;19.498;2022-12-07T12:20:13;3.40;99.90
45137;DHT22;30894;51.740;19.498;2022-12-07T12:22:46;3.40;99.90
45137;DHT22;30894;51.740;19.498;2022-12-07T12:25:36;3.40;99.90
45137;DHT22;30894;51.740;19.498;2022-12-07T12:28:40;3.30;99.90
45137;DHT22;30894;51.740;19.498;2022-12-07T12:34:28;3.20;99.90
45137;DHT22;30894;51.740;19.498;2022-12-07T12:37:52;3.20;99.90
45137;DHT22;30894;51.740;19.498;2022-12-07T12:42:49;3.10;99.90
45137;DHT22;30894;51.740;19.498;2022-12-07T12:45:25;3.00;99.90
45137;DHT22;30894;51.740;19.498;2022-12-07T12:47:56;3.00;99.90
45137;DHT22;30894;51.740;19.498;2022-12-07T12:50:33;3.00;99.90
45137;DHT22;30894;51.740;19.498;2022-12-07T12:53:15;2.90;99.90
45137;DHT22;30894;51.740;19.498;2022-12-07T12:58:33;2.90;99.90
45137;DHT22;30894;51.740;19.498;2022-12-07T13:04:18;2.80;99.90
45137;DHT22;30894;51.740;19.498;2022-12-07T13:06:52;2.70;99.90
45137;DHT22;30894;51.740;19.498;2022-12-07T13:09:28;2.60;99.90
45137;DHT22;30894;51.740;19.498;2022-12-07T13:12:13;2.60;99.90
45137;DHT22;30894;51.740;19.498;2022-12-07T13:14:51;2.50;99.90
45137;DHT22;30894;51.740;19.498;2022-12-07T13:20:01;2.40;99.90
45137;DHT22;30894;51.740;19.498;2022-12-07T13:25:26;2.40;99.90
45137;DHT22;30894;51.740;19.498;2022-12-07T13:28:19;2.40;99.90
45137;DHT22;30894;51.740;19.498;2022-12-07T13:30:58;2.40;99.90
45137;DHT22;30894;51.740;19.498;2022-12-07T13:33:29;2.30;99.90
45137;DHT22;30894;51.740;19.498;2022-12-07T13:35:56;2.30;99.90
45137;DHT22;30894;51.740;19.498;2022-12-07T13:38:34;2.30;99.90
45137;DHT22;30894;51.740;19.498;2022-12-07T13:41:15;2.30;99.90
45137;DHT22;30894;51.740;19.498;2022-12-07T13:43:53;2.30;99.90
45137;DHT22;30894;51.740;19.498;2022-12-07T13:49:38;2.20;99.90
45137;DHT22;30894;51.740;19.498;2022-12-07T13:52:23;2.30;99.90
45137;DHT22;30894;51.740;19.498;2022-12-07T13:55:11;2.30;99.90
45137;DHT22;30894;51.740;19.498;2022-12-07T13:57:40;2.30;99.90
45137;DHT22;30894;51.740;19.498;2022-12-07T14:00:34;2.40;99.90
45137;DHT22;30894;51.740;19.498;2022-12-07T14:03:04;2.40;99.90
45137;DHT22;30894;51.740;19.498;2022-12-07T14:05:33;2.40;99.90
45137;DHT22;30894;51.740;19.498;2022-12-07T14:08:21;2.40;99.90
45137;DHT22;30894;51.740;19.498;2022-12-07T14:13:44;2.50;99.90
45137;DHT22;30894;51.740;19.498;2022-12-07T14:18:47;2.50;99.90
45137;DHT22;30894;51.740;19.498;2022-12-07T14:23:41;2.40;99.90
45137;DHT22;30894;51.740;19.498;2022-12-07T14:26:38;2.50;99.90
45137;DHT22;30894;51.740;19.498;2022-12-07T14:29:22;2.40;99.90
45137;DHT22;30894;51.740;19.498;2022-12-07T14:31:48;2.40;99.90
45137;DHT22;30894;51.740;19.498;2022-12-07T14:34:14;2.40;99.90
45137;DHT22;30894;51.740;19.498;2022-12-07T14:36:41;2.40;99.90
45137;DHT22;30894;51.740;19.498;2022-12-07T14:39:07;2.40;99.90
45137;DHT22;30894;51.740;19.498;2022-12-07T14:41:35;2.40;99.90
45137;DHT22;30894;51.740;19.498;2022-12-07T14:44:17;2.40;99.90
45137;DHT22;30894;51.740;19.498;2022-12-07T14:46:44;2.30;99.90
45137;DHT22;30894;51.740;19.498;2022-12-07T14:49:11;2.30;99.90
45137;DHT22;30894;51.740;19.498;2022-12-07T14:51:44;2.30;99.90
45137;DHT22;30894;51.740;19.498;2022-12-07T14:54:19;2.30;99.90
45137;DHT22;30894;51.740;19.498;2022-12-07T14:57:01;2.30;99.90
45137;DHT22;30894;51.740;19.498;2022-12-07T14:59:38;2.30;99.90
45137;DHT22;30894;51.740;19.498;2022-12-07T15:02:24;2.20;99.90
45137;DHT22;30894;51.740;19.498;2022-12-07T15:04:50;2.20;99.90
45137;DHT22;30894;51.740;19.498;2022-12-07T15:07:20;2.20;99.90
45137;DHT22;30894;51.740;19.498;2022-12-07T15:09:48;2.20;99.90
45137;DHT22;30894;51.740;19.498;2022-12-07T15:12:14;2.30;99.90
45137;DHT22;30894;51.740;19.498;2022-12-07T15:14:41;2.30;99.90
45137;DHT22;30894;51.740;19.498;2022-12-07T15:17:11;2.30;99.90
45137;DHT22;30894;51.740;19.498;2022-12-07T15:19:40;2.20;99.90
45137;DHT22;30894;51.740;19.498;2022-12-07T15:22:08;2.20;99.90
45137;DHT22;30894;51.740;19.498;2022-12-07T15:24:37;2.20;99.90
45137;DHT22;30894;51.740;19.498;2022-12-07T15:27:04;2.20;99.90
45137;DHT22;30894;51.740;19.498;2022-12-07T15:29:31;2.20;99.90
45137;DHT22;30894;51.740;19.498;2022-12-07T15:31:58;2.20;99.90
45137;DHT22;30894;51.740;19.498;2022-12-07T15:34:26;2.20;99.90
45137;DHT22;30894;51.740;19.498;2022-12-07T15:37:15;2.20;99.90
45137;DHT22;30894;51.740;19.498;2022-12-07T15:39:41;2.10;99.90
45137;DHT22;30894;51.740;19.498;2022-12-07T15:42:08;2.10;99.90
45137;DHT22;30894;51.740;19.498;2022-12-07T15:44:37;2.10;99.90
45137;DHT22;30894;51.740;19.498;2022-12-07T15:47:22;2.10;99.90
45137;DHT22;30894;51.740;19.498;2022-12-07T15:49:50;2.10;99.90
45137;DHT22;30894;51.740;19.498;2022-12-07T15:52:24;2.20;99.90
45137;DHT22;30894;51.740;19.498;2022-12-07T15:55:06;2.20;99.90
45137;DHT22;30894;51.740;19.498;2022-12-07T15:57:38;2.20;99.90
45137;DHT22;30894;51.740;19.498;2022-12-07T16:00:08;2.20;99.90
45137;DHT22;30894;51.740;19.498;2022-12-07T16:02:48;2.30;99.90
45137;DHT22;30894;51.740;19.498;2022-12-07T16:05:14;2.30;99.90
45137;DHT22;30894;51.740;19.498;2022-12-07T16:07:41;2.40;99.90
45137;DHT22;30894;51.740;19.498;2022-12-07T16:10:08;2.30;99.90
45137;DHT22;30894;51.740;19.498;2022-12-07T16:12:35;2.30;99.90
45137;DHT22;30894;51.740;19.498;2022-12-07T16:15:01;2.30;99.90
45137;DHT22;30894;51.740;19.498;2022-12-07T16:17:29;2.30;99.90
45137;DHT22;30894;51.740;19.498;2022-12-07T16:19:56;2.30;99.90
45137;DHT22;30894;51.740;19.498;2022-12-07T16:22:28;2.30;99.90
45137;DHT22;30894;51.740;19.498;2022-12-07T16:24:54;2.30;99.90
45137;DHT22;30894;51.740;19.498;2022-12-07T16:27:22;2.30;99.90
45137;DHT22;30894;51.740;19.498;2022-12-07T16:29:49;2.40;99.90
45137;DHT22;30894;51.740;19.498;2022-12-07T16:32:31;2.40;99.90
45137;DHT22;30894;51.740;19.498;2022-12-07T16:34:57;2.40;99.90
45137;DHT22;30894;51.740;19.498;2022-12-07T16:37:30;2.40;99.90
45137;DHT22;30894;51.740;19.498;2022-12-07T16:40:13;2.40;99.90
45137;DHT22;30894;51.740;19.498;2022-12-07T16:42:42;2.40;99.90
45137;DHT22;30894;51.740;19.498;2022-12-07T16:45:20;2.40;99.90
45137;DHT22;30894;51.740;19.498;2022-12-07T16:48:02;2.40;99.90
45137;DHT22;30894;51.740;19.498;2022-12-07T16:50:42;2.40;99.90
45137;DHT22;30894;51.740;19.498;2022-12-07T16:53:14;2.50;99.90
45137;DHT22;30894;51.740;19.498;2022-12-07T16:55:57;2.40;99.90
45137;DHT22;30894;51.740;19.498;2022-12-07T16:58:53;2.40;99.90
45137;DHT22;30894;51.740;19.498;2022-12-07T17:01:23;2.40;99.90
45137;DHT22;30894;51.740;19.498;2022-12-07T17:03:50;2.30;99.90
45137;DHT22;30894;51.740;19.498;2022-12-07T17:06:30;2.30;99.90
45137;DHT22;30894;51.740;19.498;2022-12-07T17:09:25;2.30;99.90
45137;DHT22;30894;51.740;19.498;2022-12-07T17:11:51;2.30;99.90
45137;DHT22;30894;51.740;19.498;2022-12-07T17:14:18;2.30;99.90
45137;DHT22;30894;51.740;19.498;2022-12-07T17:17:02;2.30;99.90
45137;DHT22;30894;51.740;19.498;2022-12-07T17:19:33;2.30;99.90
45137;DHT22;30894;51.740;19.498;2022-12-07T17:22:00;2.50;99.90
45137;DHT22;30894;51.740;19.498;2022-12-07T17:24:28;2.30;99.90
45137;DHT22;30894;51.740;19.498;2022-12-07T17:26:57;2.40;99.90
45137;DHT22;30894;51.740;19.498;2022-12-07T17:29:26;2.40;99.90
45137;DHT22;30894;51.740;19.498;2022-12-07T17:31:54;2.40;99.90
45137;DHT22;30894;51.740;19.498;2022-12-07T17:34:22;2.40;99.90
45137;DHT22;30894;51.740;19.498;2022-12-07T17:36:57;2.50;99.90
45137;DHT22;30894;51.740;19.498;2022-12-07T17:39:25;2.50;99.90
45137;DHT22;30894;51.740;19.498;2022-12-07T17:41:53;2.50;99.90
45137;DHT22;30894;51.740;19.498;2022-12-07T17:44:40;2.50;99.90
45137;DHT22;30894;51.740;19.498;2022-12-07T17:47:07;2.50;99.90
45137;DHT22;30894;51.740;19.498;2022-12-07T17:49:35;2.50;99.90
45137;DHT22;30894;51.740;19.498;2022-12-07T17:52:02;2.50;99.90